NCAR-RAP Real-Time Weather Data

Output produced by METARs form (08 May 2021  01:40 UTC)
found at http://weather.rap.ucar.edu/surface/
 
KBYI 080053Z AUTO 26010KT 10SM CLR 14/01 A2992 RMK AO2 SLP105 T01440011
KBYI 072353Z AUTO 27011G19KT 10SM BKN100 14/00 A2990 RMK AO2 SLP097 60000 T01390000 10189 20133 58012
KBYI 072253Z AUTO 28012G21KT 10SM OVC100 14/00 A2993 RMK AO2 SLP108 T01390000
KBYI 072153Z AUTO 28016G26KT 10SM FEW070 OVC085 14/01 A2993 RMK AO2 PK WND 28026/2146 RAB2057E12B32E40 SLP115 P0000 T01440011
KBYI 072053Z AUTO 29012G22KT 10SM BKN080 BKN110 14/01 A2994 RMK AO2 PK WND 29028/1954 SLP116 T01390011 55003
KBYI 071953Z AUTO 28016G31KT 10SM CLR 19/03 A2993 RMK AO2 PK WND 29031/1953 SLP105 T01890033
KBYI 071853Z AUTO 27012G22KT 10SM SCT110 18/04 A2994 RMK AO2 SLP109 T01830039
KBYI 071753Z AUTO 28014G24KT 10SM CLR 18/03 A2995 RMK AO2 SLP112 T01830028 10189 20139 50005
KBYI 071653Z AUTO 27012G20KT 10SM CLR 18/04 A2995 RMK AO2 SLP109 T01780039
KBYI 071553Z AUTO 28014G25KT 10SM CLR 16/03 A2995 RMK AO2 PK WND 27029/1456 SLP106 T01610033
KBYI 071453Z AUTO 27016G30KT 10SM CLR 16/04 A2993 RMK AO2 PK WND 26032/1440 SLP101 T01560039 51021
KBYI 071353Z AUTO 26017G29KT 10SM CLR 14/04 A2992 RMK AO2 PK WND 26029/1348 SLP097 T01440039
KBYI 071253Z AUTO 26017G29KT 10SM CLR 14/03 A2989 RMK AO2 PK WND 26033/1230 SLP078 T01440033